sensor_id;sensor_type;location;lat;lon;timestamp;temperature;humidity
4566;DHT22;2295;51.050;14.608;2022-11-15T00:02:02;4.60;99.90
4566;DHT22;2295;51.050;14.608;2022-11-15T00:04:31;4.50;99.90
4566;DHT22;2295;51.050;14.608;2022-11-15T00:07:00;4.50;99.90
4566;DHT22;2295;51.050;14.608;2022-11-15T00:09:31;4.40;99.90
4566;DHT22;2295;51.050;14.608;2022-11-15T00:12:01;4.40;99.90
4566;DHT22;2295;51.050;14.608;2022-11-15T00:14:30;4.40;99.90
4566;DHT22;2295;51.050;14.608;2022-11-15T00:16:58;4.50;99.90
4566;DHT22;2295;51.050;14.608;2022-11-15T00:19:27;4.50;99.90
4566;DHT22;2295;51.050;14.608;2022-11-15T00:21:55;4.60;99.90
4566;DHT22;2295;51.050;14.608;2022-11-15T00:24:24;4.70;99.90
4566;DHT22;2295;51.050;14.608;2022-11-15T00:26:56;4.90;99.90
4566;DHT22;2295;51.050;14.608;2022-11-15T00:29:25;5.10;99.90
4566;DHT22;2295;51.050;14.608;2022-11-15T00:31:54;5.10;99.90
4566;DHT22;2295;51.050;14.608;2022-11-15T00:34:23;5.00;99.90
4566;DHT22;2295;51.050;14.608;2022-11-15T00:36:55;5.00;99.90
4566;DHT22;2295;51.050;14.608;2022-11-15T00:39:24;4.90;99.90
4566;DHT22;2295;51.050;14.608;2022-11-15T00:41:53;4.90;99.90
4566;DHT22;2295;51.050;14.608;2022-11-15T00:44:26;5.00;99.90
4566;DHT22;2295;51.050;14.608;2022-11-15T00:46:55;4.90;99.90
4566;DHT22;2295;51.050;14.608;2022-11-15T00:49:24;4.80;99.90
4566;DHT22;2295;51.050;14.608;2022-11-15T00:51:52;4.90;99.90
4566;DHT22;2295;51.050;14.608;2022-11-15T00:54:21;5.00;99.90
4566;DHT22;2295;51.050;14.608;2022-11-15T00:56:50;5.10;99.90
4566;DHT22;2295;51.050;14.608;2022-11-15T00:59:19;5.00;99.90
4566;DHT22;2295;51.050;14.608;2022-11-15T01:01:49;4.90;99.90
4566;DHT22;2295;51.050;14.608;2022-11-15T01:04:18;4.80;99.90
4566;DHT22;2295;51.050;14.608;2022-11-15T01:06:48;4.70;99.90
4566;DHT22;2295;51.050;14.608;2022-11-15T01:09:18;4.50;99.90
4566;DHT22;2295;51.050;14.608;2022-11-15T01:11:50;4.50;99.90
4566;DHT22;2295;51.050;14.608;2022-11-15T01:14:31;4.50;99.90
4566;DHT22;2295;51.050;14.608;2022-11-15T01:17:01;4.50;99.90
4566;DHT22;2295;51.050;14.608;2022-11-15T01:19:33;4.50;99.90
4566;DHT22;2295;51.050;14.608;2022-11-15T01:22:01;4.60;99.90
4566;DHT22;2295;51.050;14.608;2022-11-15T01:24:32;4.70;99.90
4566;DHT22;2295;51.050;14.608;2022-11-15T01:27:01;4.60;99.90
4566;DHT22;2295;51.050;14.608;2022-11-15T01:29:31;4.60;99.90
4566;DHT22;2295;51.050;14.608;2022-11-15T01:32:02;4.60;99.90
4566;DHT22;2295;51.050;14.608;2022-11-15T01:34:31;4.50;99.90
4566;DHT22;2295;51.050;14.608;2022-11-15T01:37:00;4.50;99.90
4566;DHT22;2295;51.050;14.608;2022-11-15T01:39:37;4.40;99.90
4566;DHT22;2295;51.050;14.608;2022-11-15T01:42:10;4.50;99.90
4566;DHT22;2295;51.050;14.608;2022-11-15T01:44:43;4.40;99.90
4566;DHT22;2295;51.050;14.608;2022-11-15T01:47:17;4.30;99.90
4566;DHT22;2295;51.050;14.608;2022-11-15T01:49:52;4.20;99.90
4566;DHT22;2295;51.050;14.608;2022-11-15T01:52:25;4.30;99.90
4566;DHT22;2295;51.050;14.608;2022-11-15T01:54:59;4.40;99.90
4566;DHT22;2295;51.050;14.608;2022-11-15T01:57:32;4.60;99.90
4566;DHT22;2295;51.050;14.608;2022-11-15T02:00:04;4.90;99.90
4566;DHT22;2295;51.050;14.608;2022-11-15T02:02:36;4.90;99.90
4566;DHT22;2295;51.050;14.608;2022-11-15T02:05:07;4.80;99.90
4566;DHT22;2295;51.050;14.608;2022-11-15T02:07:38;4.70;99.90
4566;DHT22;2295;51.050;14.608;2022-11-15T02:10:12;4.60;99.90
4566;DHT22;2295;51.050;14.608;2022-11-15T02:12:42;4.40;99.90
4566;DHT22;2295;51.050;14.608;2022-11-15T02:15:11;4.30;99.90
4566;DHT22;2295;51.050;14.608;2022-11-15T02:17:54;4.40;99.90
4566;DHT22;2295;51.050;14.608;2022-11-15T02:20:41;4.50;99.90
4566;DHT22;2295;51.050;14.608;2022-11-15T02:23:32;4.60;99.90
4566;DHT22;2295;51.050;14.608;2022-11-15T02:26:24;4.90;99.90
4566;DHT22;2295;51.050;14.608;2022-11-15T02:29:03;5.10;99.90
4566;DHT22;2295;51.050;14.608;2022-11-15T02:31:53;5.20;99.90
4566;DHT22;2295;51.050;14.608;2022-11-15T02:34:28;5.20;99.90
4566;DHT22;2295;51.050;14.608;2022-11-15T02:37:07;5.10;99.90
4566;DHT22;2295;51.050;14.608;2022-11-15T02:39:42;5.00;99.90
4566;DHT22;2295;51.050;14.608;2022-11-15T02:42:15;4.80;99.90
4566;DHT22;2295;51.050;14.608;2022-11-15T02:45:02;4.80;99.90
4566;DHT22;2295;51.050;14.608;2022-11-15T02:47:40;4.60;99.90
4566;DHT22;2295;51.050;14.608;2022-11-15T02:50:12;4.70;99.90
4566;DHT22;2295;51.050;14.608;2022-11-15T02:53:08;4.80;99.90
4566;DHT22;2295;51.050;14.608;2022-11-15T02:55:42;4.80;99.90
4566;DHT22;2295;51.050;14.608;2022-11-15T02:58:42;4.80;99.90
4566;DHT22;2295;51.050;14.608;2022-11-15T03:01:26;4.70;99.90
4566;DHT22;2295;51.050;14.608;2022-11-15T03:04:04;4.70;99.90
4566;DHT22;2295;51.050;14.608;2022-11-15T03:06:41;4.70;99.90
4566;DHT22;2295;51.050;14.608;2022-11-15T03:09:17;4.70;99.90
4566;DHT22;2295;51.050;14.608;2022-11-15T03:11:57;4.60;99.90
4566;DHT22;2295;51.050;14.608;2022-11-15T03:14:34;4.50;99.90
4566;DHT22;2295;51.050;14.608;2022-11-15T03:17:12;4.40;99.90
4566;DHT22;2295;51.050;14.608;2022-11-15T03:19:46;4.30;99.90
4566;DHT22;2295;51.050;14.608;2022-11-15T03:22:17;4.20;99.90
4566;DHT22;2295;51.050;14.608;2022-11-15T03:24:50;4.20;99.90
4566;DHT22;2295;51.050;14.608;2022-11-15T03:27:24;4.30;99.90
4566;DHT22;2295;51.050;14.608;2022-11-15T03:29:56;4.30;99.90
4566;DHT22;2295;51.050;14.608;2022-11-15T03:32:30;4.40;99.90
4566;DHT22;2295;51.050;14.608;2022-11-15T03:35:04;4.30;99.90
4566;DHT22;2295;51.050;14.608;2022-11-15T03:37:36;4.30;99.90
4566;DHT22;2295;51.050;14.608;2022-11-15T03:40:08;4.20;99.90
4566;DHT22;2295;51.050;14.608;2022-11-15T03:42:41;4.20;99.90
4566;DHT22;2295;51.050;14.608;2022-11-15T03:45:18;4.10;99.90
4566;DHT22;2295;51.050;14.608;2022-11-15T03:47:54;4.20;99.90
4566;DHT22;2295;51.050;14.608;2022-11-15T03:50:30;4.20;99.90
4566;DHT22;2295;51.050;14.608;2022-11-15T03:53:00;4.30;99.90
4566;DHT22;2295;51.050;14.608;2022-11-15T03:55:29;4.20;99.90
4566;DHT22;2295;51.050;14.608;2022-11-15T03:58:01;4.20;99.90
4566;DHT22;2295;51.050;14.608;2022-11-15T04:00:30;4.10;99.90
4566;DHT22;2295;51.050;14.608;2022-11-15T04:02:59;4.00;99.90
4566;DHT22;2295;51.050;14.608;2022-11-15T04:05:32;3.90;99.90
4566;DHT22;2295;51.050;14.608;2022-11-15T04:08:02;3.70;99.90
4566;DHT22;2295;51.050;14.608;2022-11-15T04:10:31;3.60;99.90
4566;DHT22;2295;51.050;14.608;2022-11-15T04:13:02;3.60;99.90
4566;DHT22;2295;51.050;14.608;2022-11-15T04:15:31;3.50;99.90
4566;DHT22;2295;51.050;14.608;2022-11-15T04:18:00;3.50;99.90
4566;DHT22;2295;51.050;14.608;2022-11-15T04:20:31;3.50;99.90
4566;DHT22;2295;51.050;14.608;2022-11-15T04:23:19;3.60;99.90
4566;DHT22;2295;51.050;14.608;2022-11-15T04:26:17;3.70;99.90
4566;DHT22;2295;51.050;14.608;2022-11-15T04:28:46;3.70;99.90
4566;DHT22;2295;51.050;14.608;2022-11-15T04:31:30;3.70;99.90
4566;DHT22;2295;51.050;14.608;2022-11-15T04:34:00;3.80;99.90
4566;DHT22;2295;51.050;14.608;2022-11-15T04:36:34;3.90;99.90
4566;DHT22;2295;51.050;14.608;2022-11-15T04:39:27;3.90;99.90
4566;DHT22;2295;51.050;14.608;2022-11-15T04:41:57;4.10;99.90
4566;DHT22;2295;51.050;14.608;2022-11-15T04:44:25;4.20;99.90
4566;DHT22;2295;51.050;14.608;2022-11-15T04:46:54;4.20;99.90
4566;DHT22;2295;51.050;14.608;2022-11-15T04:49:25;4.30;99.90
4566;DHT22;2295;51.050;14.608;2022-11-15T04:52:16;4.30;99.90
4566;DHT22;2295;51.050;14.608;2022-11-15T04:54:46;4.30;99.90
4566;DHT22;2295;51.050;14.608;2022-11-15T04:57:15;4.30;99.90
4566;DHT22;2295;51.050;14.608;2022-11-15T04:59:44;4.30;99.90
4566;DHT22;2295;51.050;14.608;2022-11-15T05:02:14;4.30;99.90
4566;DHT22;2295;51.050;14.608;2022-11-15T05:04:44;4.20;99.90
4566;DHT22;2295;51.050;14.608;2022-11-15T05:07:12;4.10;99.90
4566;DHT22;2295;51.050;14.608;2022-11-15T05:09:41;4.00;99.90
4566;DHT22;2295;51.050;14.608;2022-11-15T05:12:10;3.90;99.90
4566;DHT22;2295;51.050;14.608;2022-11-15T05:14:41;3.80;99.90
4566;DHT22;2295;51.050;14.608;2022-11-15T05:17:09;3.70;99.90
4566;DHT22;2295;51.050;14.608;2022-11-15T05:19:38;3.70;99.90
4566;DHT22;2295;51.050;14.608;2022-11-15T05:22:07;3.70;99.90
4566;DHT22;2295;51.050;14.608;2022-11-15T05:24:37;3.70;99.90
4566;DHT22;2295;51.050;14.608;2022-11-15T05:27:06;3.70;99.90
4566;DHT22;2295;51.050;14.608;2022-11-15T05:29:36;3.70;99.90
4566;DHT22;2295;51.050;14.608;2022-11-15T05:32:06;3.70;99.90
4566;DHT22;2295;51.050;14.608;2022-11-15T05:34:37;3.70;99.90
4566;DHT22;2295;51.050;14.608;2022-11-15T05:37:06;3.70;99.90
4566;DHT22;2295;51.050;14.608;2022-11-15T05:39:38;3.70;99.90
4566;DHT22;2295;51.050;14.608;2022-11-15T05:42:09;3.70;99.90
4566;DHT22;2295;51.050;14.608;2022-11-15T05:44:41;3.70;99.90
4566;DHT22;2295;51.050;14.608;2022-11-15T05:47:14;3.60;99.90
4566;DHT22;2295;51.050;14.608;2022-11-15T05:49:44;3.50;99.90
4566;DHT22;2295;51.050;14.608;2022-11-15T05:52:17;3.50;99.90
4566;DHT22;2295;51.050;14.608;2022-11-15T05:54:48;3.50;99.90
4566;DHT22;2295;51.050;14.608;2022-11-15T05:57:17;3.50;99.90
4566;DHT22;2295;51.050;14.608;2022-11-15T05:59:47;3.40;99.90
4566;DHT22;2295;51.050;14.608;2022-11-15T06:02:15;3.40;99.90
4566;DHT22;2295;51.050;14.608;2022-11-15T06:04:44;3.40;99.90
4566;DHT22;2295;51.050;14.608;2022-11-15T06:07:13;3.30;99.90
4566;DHT22;2295;51.050;14.608;2022-11-15T06:09:43;3.20;99.90
4566;DHT22;2295;51.050;14.608;2022-11-15T06:12:13;3.10;99.90
4566;DHT22;2295;51.050;14.608;2022-11-15T06:14:47;3.00;99.90
4566;DHT22;2295;51.050;14.608;2022-11-15T06:17:16;3.00;99.90
4566;DHT22;2295;51.050;14.608;2022-11-15T06:19:45;3.00;99.90
4566;DHT22;2295;51.050;14.608;2022-11-15T06:22:14;2.90;99.90
4566;DHT22;2295;51.050;14.608;2022-11-15T06:24:43;2.90;99.90
4566;DHT22;2295;51.050;14.608;2022-11-15T06:27:16;2.90;99.90
4566;DHT22;2295;51.050;14.608;2022-11-15T06:29:45;2.90;99.90
4566;DHT22;2295;51.050;14.608;2022-11-15T06:32:15;2.90;99.90
4566;DHT22;2295;51.050;14.608;2022-11-15T06:34:44;2.90;99.90
4566;DHT22;2295;51.050;14.608;2022-11-15T06:37:12;2.90;99.90
4566;DHT22;2295;51.050;14.608;2022-11-15T06:39:42;2.80;99.90
4566;DHT22;2295;51.050;14.608;2022-11-15T06:42:12;2.80;99.90
4566;DHT22;2295;51.050;14.608;2022-11-15T06:44:42;2.80;99.90
4566;DHT22;2295;51.050;14.608;2022-11-15T06:47:11;2.80;99.90
4566;DHT22;2295;51.050;14.608;2022-11-15T06:49:52;2.80;99.90
4566;DHT22;2295;51.050;14.608;2022-11-15T06:52:21;2.80;99.90
4566;DHT22;2295;51.050;14.608;2022-11-15T06:54:51;2.80;99.90
4566;DHT22;2295;51.050;14.608;2022-11-15T06:57:20;2.90;99.90
4566;DHT22;2295;51.050;14.608;2022-11-15T06:59:50;3.00;99.90
4566;DHT22;2295;51.050;14.608;2022-11-15T07:02:19;3.00;99.90
4566;DHT22;2295;51.050;14.608;2022-11-15T07:04:48;3.00;99.90
4566;DHT22;2295;51.050;14.608;2022-11-15T07:07:17;3.20;99.90
4566;DHT22;2295;51.050;14.608;2022-11-15T07:09:47;3.20;99.90
4566;DHT22;2295;51.050;14.608;2022-11-15T07:12:19;3.30;99.90
4566;DHT22;2295;51.050;14.608;2022-11-15T07:14:49;3.40;99.90
4566;DHT22;2295;51.050;14.608;2022-11-15T07:17:23;3.40;99.90
4566;DHT22;2295;51.050;14.608;2022-11-15T07:19:52;3.60;99.90
4566;DHT22;2295;51.050;14.608;2022-11-15T07:22:20;3.80;99.90
4566;DHT22;2295;51.050;14.608;2022-11-15T07:25:02;3.90;99.90
4566;DHT22;2295;51.050;14.608;2022-11-15T07:27:31;4.00;99.90
4566;DHT22;2295;51.050;14.608;2022-11-15T07:30:01;4.10;99.90
4566;DHT22;2295;51.050;14.608;2022-11-15T07:32:30;4.10;99.90
4566;DHT22;2295;51.050;14.608;2022-11-15T07:35:00;4.20;99.90
4566;DHT22;2295;51.050;14.608;2022-11-15T07:37:28;4.30;99.90
4566;DHT22;2295;51.050;14.608;2022-11-15T07:39:58;4.40;99.90
4566;DHT22;2295;51.050;14.608;2022-11-15T07:42:27;4.50;99.90
4566;DHT22;2295;51.050;14.608;2022-11-15T07:45:16;4.60;99.90
4566;DHT22;2295;51.050;14.608;2022-11-15T07:47:45;4.70;99.90
4566;DHT22;2295;51.050;14.608;2022-11-15T07:50:17;4.80;99.90
4566;DHT22;2295;51.050;14.608;2022-11-15T07:52:46;4.90;99.90
4566;DHT22;2295;51.050;14.608;2022-11-15T07:55:15;4.90;99.90
4566;DHT22;2295;51.050;14.608;2022-11-15T07:57:44;5.00;99.90
4566;DHT22;2295;51.050;14.608;2022-11-15T08:00:16;5.00;99.90
4566;DHT22;2295;51.050;14.608;2022-11-15T08:02:46;5.10;99.90
4566;DHT22;2295;51.050;14.608;2022-11-15T08:05:15;5.30;99.90
4566;DHT22;2295;51.050;14.608;2022-11-15T08:07:44;5.40;99.90
4566;DHT22;2295;51.050;14.608;2022-11-15T08:10:13;5.40;99.90
4566;DHT22;2295;51.050;14.608;2022-11-15T08:12:43;5.60;99.90
4566;DHT22;2295;51.050;14.608;2022-11-15T08:15:12;5.60;99.90
4566;DHT22;2295;51.050;14.608;2022-11-15T08:17:42;5.80;99.90
4566;DHT22;2295;51.050;14.608;2022-11-15T08:20:10;5.90;99.90
4566;DHT22;2295;51.050;14.608;2022-11-15T08:22:39;6.10;99.90
4566;DHT22;2295;51.050;14.608;2022-11-15T08:25:07;6.20;99.90
4566;DHT22;2295;51.050;14.608;2022-11-15T08:27:36;6.30;99.90
4566;DHT22;2295;51.050;14.608;2022-11-15T08:30:05;6.30;99.90
4566;DHT22;2295;51.050;14.608;2022-11-15T08:32:37;6.30;99.90
4566;DHT22;2295;51.050;14.608;2022-11-15T08:35:07;6.40;99.90
4566;DHT22;2295;51.050;14.608;2022-11-15T08:37:36;6.40;99.90
4566;DHT22;2295;51.050;14.608;2022-11-15T08:40:06;6.50;99.90
4566;DHT22;2295;51.050;14.608;2022-11-15T08:42:35;6.60;99.90
4566;DHT22;2295;51.050;14.608;2022-11-15T08:45:05;6.70;99.90
4566;DHT22;2295;51.050;14.608;2022-11-15T08:47:33;6.80;99.90
4566;DHT22;2295;51.050;14.608;2022-11-15T08:50:02;6.90;99.90
4566;DHT22;2295;51.050;14.608;2022-11-15T08:52:31;7.00;99.90
4566;DHT22;2295;51.050;14.608;2022-11-15T08:55:00;7.10;99.90
4566;DHT22;2295;51.050;14.608;2022-11-15T08:57:29;7.20;99.90
4566;DHT22;2295;51.050;14.608;2022-11-15T08:59:57;7.20;99.90
4566;DHT22;2295;51.050;14.608;2022-11-15T09:02:26;7.30;99.90
4566;DHT22;2295;51.050;14.608;2022-11-15T09:04:54;7.40;99.90
4566;DHT22;2295;51.050;14.608;2022-11-15T09:07:22;7.40;99.90
4566;DHT22;2295;51.050;14.608;2022-11-15T09:09:52;7.50;99.90
4566;DHT22;2295;51.050;14.608;2022-11-15T09:12:21;7.50;99.90
4566;DHT22;2295;51.050;14.608;2022-11-15T09:14:49;7.60;99.90
4566;DHT22;2295;51.050;14.608;2022-11-15T09:17:17;7.60;99.90
4566;DHT22;2295;51.050;14.608;2022-11-15T09:19:50;7.80;99.90
4566;DHT22;2295;51.050;14.608;2022-11-15T09:22:19;7.90;99.90
4566;DHT22;2295;51.050;14.608;2022-11-15T09:24:47;8.00;99.90
4566;DHT22;2295;51.050;14.608;2022-11-15T09:27:17;8.10;99.90
4566;DHT22;2295;51.050;14.608;2022-11-15T09:29:46;8.10;99.90
4566;DHT22;2295;51.050;14.608;2022-11-15T09:32:14;8.10;99.90
4566;DHT22;2295;51.050;14.608;2022-11-15T09:34:43;8.20;99.90
4566;DHT22;2295;51.050;14.608;2022-11-15T09:37:11;8.30;99.90
4566;DHT22;2295;51.050;14.608;2022-11-15T09:39:40;8.30;99.90
4566;DHT22;2295;51.050;14.608;2022-11-15T09:42:27;8.40;99.90
4566;DHT22;2295;51.050;14.608;2022-11-15T09:45:07;8.50;99.90
4566;DHT22;2295;51.050;14.608;2022-11-15T09:48:02;8.70;99.90
4566;DHT22;2295;51.050;14.608;2022-11-15T09:50:40;8.80;99.90
4566;DHT22;2295;51.050;14.608;2022-11-15T09:53:14;8.90;99.90
4566;DHT22;2295;51.050;14.608;2022-11-15T09:55:49;9.00;99.90
4566;DHT22;2295;51.050;14.608;2022-11-15T09:58:26;9.10;99.90
4566;DHT22;2295;51.050;14.608;2022-11-15T10:01:05;9.20;99.90
4566;DHT22;2295;51.050;14.608;2022-11-15T10:03:37;9.30;99.90
4566;DHT22;2295;51.050;14.608;2022-11-15T10:06:16;9.40;99.90
4566;DHT22;2295;51.050;14.608;2022-11-15T10:08:51;9.40;99.90
4566;DHT22;2295;51.050;14.608;2022-11-15T10:11:24;9.50;99.90
4566;DHT22;2295;51.050;14.608;2022-11-15T10:14:12;9.50;99.90
4566;DHT22;2295;51.050;14.608;2022-11-15T10:17:13;9.50;99.90
4566;DHT22;2295;51.050;14.608;2022-11-15T10:19:56;9.50;99.90
4566;DHT22;2295;51.050;14.608;2022-11-15T10:22:37;9.60;99.90
4566;DHT22;2295;51.050;14.608;2022-11-15T10:25:15;9.60;99.90
4566;DHT22;2295;51.050;14.608;2022-11-15T10:27:47;9.70;99.90
4566;DHT22;2295;51.050;14.608;2022-11-15T10:30:28;9.70;99.90
4566;DHT22;2295;51.050;14.608;2022-11-15T10:32:58;9.80;99.90
4566;DHT22;2295;51.050;14.608;2022-11-15T10:35:29;9.80;99.90
4566;DHT22;2295;51.050;14.608;2022-11-15T10:38:05;9.80;99.90
4566;DHT22;2295;51.050;14.608;2022-11-15T10:40:35;9.90;99.90
4566;DHT22;2295;51.050;14.608;2022-11-15T10:43:11;9.90;99.90
4566;DHT22;2295;51.050;14.608;2022-11-15T10:45:42;9.90;99.90
4566;DHT22;2295;51.050;14.608;2022-11-15T10:48:24;9.90;99.90
4566;DHT22;2295;51.050;14.608;2022-11-15T10:50:54;10.00;99.90
4566;DHT22;2295;51.050;14.608;2022-11-15T10:53:30;10.00;99.90
4566;DHT22;2295;51.050;14.608;2022-11-15T10:56:02;10.00;99.90
4566;DHT22;2295;51.050;14.608;2022-11-15T10:58:37;10.10;99.90
4566;DHT22;2295;51.050;14.608;2022-11-15T11:01:12;10.10;99.90
4566;DHT22;2295;51.050;14.608;2022-11-15T11:03:42;10.10;99.90
4566;DHT22;2295;51.050;14.608;2022-11-15T11:06:13;10.20;99.90
4566;DHT22;2295;51.050;14.608;2022-11-15T11:08:57;10.20;99.90
4566;DHT22;2295;51.050;14.608;2022-11-15T11:11:44;10.20;99.90
4566;DHT22;2295;51.050;14.608;2022-11-15T11:14:13;10.30;99.90
4566;DHT22;2295;51.050;14.608;2022-11-15T11:16:49;10.30;99.90
4566;DHT22;2295;51.050;14.608;2022-11-15T11:19:34;10.30;99.90
4566;DHT22;2295;51.050;14.608;2022-11-15T11:22:09;10.40;99.90
4566;DHT22;2295;51.050;14.608;2022-11-15T11:24:45;10.50;99.90
4566;DHT22;2295;51.050;14.608;2022-11-15T11:27:27;10.40;99.90
4566;DHT22;2295;51.050;14.608;2022-11-15T11:30:06;10.40;99.90
4566;DHT22;2295;51.050;14.608;2022-11-15T11:33:03;10.40;99.90
4566;DHT22;2295;51.050;14.608;2022-11-15T11:35:40;10.50;99.90
4566;DHT22;2295;51.050;14.608;2022-11-15T11:38:23;10.50;99.90
4566;DHT22;2295;51.050;14.608;2022-11-15T11:40:59;10.60;99.90
4566;DHT22;2295;51.050;14.608;2022-11-15T11:43:35;10.60;99.90
4566;DHT22;2295;51.050;14.608;2022-11-15T11:46:24;10.60;99.90
4566;DHT22;2295;51.050;14.608;2022-11-15T11:48:58;10.60;99.90
4566;DHT22;2295;51.050;14.608;2022-11-15T11:51:34;10.60;99.90
4566;DHT22;2295;51.050;14.608;2022-11-15T11:54:12;10.60;99.90
4566;DHT22;2295;51.050;14.608;2022-11-15T11:56:44;10.60;99.90
4566;DHT22;2295;51.050;14.608;2022-11-15T11:59:19;10.60;99.90
4566;DHT22;2295;51.050;14.608;2022-11-15T12:01:49;10.50;99.90
4566;DHT22;2295;51.050;14.608;2022-11-15T12:04:26;10.50;99.90
4566;DHT22;2295;51.050;14.608;2022-11-15T12:07:00;10.60;99.90
4566;DHT22;2295;51.050;14.608;2022-11-15T12:09:33;10.60;99.90
4566;DHT22;2295;51.050;14.608;2022-11-15T12:12:09;10.60;99.90
4566;DHT22;2295;51.050;14.608;2022-11-15T12:14:43;10.60;99.90
4566;DHT22;2295;51.050;14.608;2022-11-15T12:17:15;10.60;99.90
4566;DHT22;2295;51.050;14.608;2022-11-15T12:19:46;10.60;99.90
4566;DHT22;2295;51.050;14.608;2022-11-15T12:22:19;10.60;99.90
4566;DHT22;2295;51.050;14.608;2022-11-15T12:24:51;10.60;99.90
4566;DHT22;2295;51.050;14.608;2022-11-15T12:27:30;10.60;99.90
4566;DHT22;2295;51.050;14.608;2022-11-15T12:30:02;10.50;99.90
4566;DHT22;2295;51.050;14.608;2022-11-15T12:32:33;10.50;99.90
4566;DHT22;2295;51.050;14.608;2022-11-15T12:35:06;10.50;99.90
4566;DHT22;2295;51.050;14.608;2022-11-15T12:37:50;10.50;99.90
4566;DHT22;2295;51.050;14.608;2022-11-15T12:40:22;10.50;99.90
4566;DHT22;2295;51.050;14.608;2022-11-15T12:45:54;10.50;99.90
4566;DHT22;2295;51.050;14.608;2022-11-15T12:48:46;10.60;99.90
4566;DHT22;2295;51.050;14.608;2022-11-15T12:51:16;10.60;99.90
4566;DHT22;2295;51.050;14.608;2022-11-15T12:53:45;10.60;99.90
4566;DHT22;2295;51.050;14.608;2022-11-15T12:56:21;10.50;99.90
4566;DHT22;2295;51.050;14.608;2022-11-15T12:58:55;10.50;99.90
4566;DHT22;2295;51.050;14.608;2022-11-15T13:01:54;10.40;99.90
4566;DHT22;2295;51.050;14.608;2022-11-15T13:04:26;10.40;99.90
4566;DHT22;2295;51.050;14.608;2022-11-15T13:06:58;10.40;99.90
4566;DHT22;2295;51.050;14.608;2022-11-15T13:09:52;10.40;99.90
4566;DHT22;2295;51.050;14.608;2022-11-15T13:12:54;10.40;99.90
4566;DHT22;2295;51.050;14.608;2022-11-15T13:15:53;10.30;99.90
4566;DHT22;2295;51.050;14.608;2022-11-15T13:18:35;10.10;99.90
4566;DHT22;2295;51.050;14.608;2022-11-15T13:21:18;10.10;99.90
4566;DHT22;2295;51.050;14.608;2022-11-15T13:24:12;10.00;99.90
4566;DHT22;2295;51.050;14.608;2022-11-15T13:26:41;9.80;99.90
4566;DHT22;2295;51.050;14.608;2022-11-15T13:29:18;9.80;99.90
4566;DHT22;2295;51.050;14.608;2022-11-15T13:31:47;9.70;99.90
4566;DHT22;2295;51.050;14.608;2022-11-15T13:34:30;9.60;99.90
4566;DHT22;2295;51.050;14.608;2022-11-15T13:37:30;9.60;99.90
4566;DHT22;2295;51.050;14.608;2022-11-15T13:40:24;9.70;99.90
4566;DHT22;2295;51.050;14.608;2022-11-15T13:42:54;9.70;99.90
4566;DHT22;2295;51.050;14.608;2022-11-15T13:45:23;9.70;99.90
4566;DHT22;2295;51.050;14.608;2022-11-15T13:47:53;9.60;99.90
4566;DHT22;2295;51.050;14.608;2022-11-15T13:50:26;9.50;99.90
4566;DHT22;2295;51.050;14.608;2022-11-15T13:52:57;9.40;99.90
4566;DHT22;2295;51.050;14.608;2022-11-15T13:55:29;9.40;99.90
4566;DHT22;2295;51.050;14.608;2022-11-15T13:58:02;9.30;99.90
4566;DHT22;2295;51.050;14.608;2022-11-15T14:00:36;9.20;99.90
4566;DHT22;2295;51.050;14.608;2022-11-15T14:03:16;9.10;99.90
4566;DHT22;2295;51.050;14.608;2022-11-15T14:06:02;9.00;99.90
4566;DHT22;2295;51.050;14.608;2022-11-15T14:08:34;8.80;99.90
4566;DHT22;2295;51.050;14.608;2022-11-15T14:11:12;8.70;99.90
4566;DHT22;2295;51.050;14.608;2022-11-15T14:14:08;8.50;99.90
4566;DHT22;2295;51.050;14.608;2022-11-15T14:16:41;8.30;99.90
4566;DHT22;2295;51.050;14.608;2022-11-15T14:19:13;8.20;99.90
4566;DHT22;2295;51.050;14.608;2022-11-15T14:22:12;8.10;99.90
4566;DHT22;2295;51.050;14.608;2022-11-15T14:24:43;8.00;99.90
4566;DHT22;2295;51.050;14.608;2022-11-15T14:27:27;7.90;99.90
4566;DHT22;2295;51.050;14.608;2022-11-15T14:29:57;7.80;99.90
4566;DHT22;2295;51.050;14.608;2022-11-15T14:32:27;7.70;99.90
4566;DHT22;2295;51.050;14.608;2022-11-15T14:34:58;7.60;99.90
4566;DHT22;2295;51.050;14.608;2022-11-15T14:37:28;7.50;99.90
4566;DHT22;2295;51.050;14.608;2022-11-15T14:39:58;7.40;99.90
4566;DHT22;2295;51.050;14.608;2022-11-15T14:42:30;7.30;99.90
4566;DHT22;2295;51.050;14.608;2022-11-15T14:44:59;7.20;99.90
4566;DHT22;2295;51.050;14.608;2022-11-15T14:47:27;7.10;99.90
4566;DHT22;2295;51.050;14.608;2022-11-15T14:49:56;7.00;99.90
4566;DHT22;2295;51.050;14.608;2022-11-15T14:52:27;6.90;99.90
4566;DHT22;2295;51.050;14.608;2022-11-15T14:54:59;6.70;99.90
4566;DHT22;2295;51.050;14.608;2022-11-15T14:57:30;6.60;99.90
4566;DHT22;2295;51.050;14.608;2022-11-15T14:59:59;6.40;99.90
4566;DHT22;2295;51.050;14.608;2022-11-15T15:02:27;6.30;99.90
4566;DHT22;2295;51.050;14.608;2022-11-15T15:04:56;6.20;99.90
4566;DHT22;2295;51.050;14.608;2022-11-15T15:07:28;6.10;99.90
4566;DHT22;2295;51.050;14.608;2022-11-15T15:09:57;6.00;99.90
4566;DHT22;2295;51.050;14.608;2022-11-15T15:12:48;5.90;99.90
4566;DHT22;2295;51.050;14.608;2022-11-15T15:15:24;5.80;99.90
4566;DHT22;2295;51.050;14.608;2022-11-15T15:17:52;5.60;99.90
4566;DHT22;2295;51.050;14.608;2022-11-15T15:20:21;5.50;99.90
4566;DHT22;2295;51.050;14.608;2022-11-15T15:22:50;5.50;99.90
4566;DHT22;2295;51.050;14.608;2022-11-15T15:25:22;5.40;99.90
4566;DHT22;2295;51.050;14.608;2022-11-15T15:27:56;5.30;99.90
4566;DHT22;2295;51.050;14.608;2022-11-15T15:30:26;5.30;99.90
4566;DHT22;2295;51.050;14.608;2022-11-15T15:32:58;5.30;99.90
4566;DHT22;2295;51.050;14.608;2022-11-15T15:35:30;5.30;99.90
4566;DHT22;2295;51.050;14.608;2022-11-15T15:38:00;5.20;99.90
4566;DHT22;2295;51.050;14.608;2022-11-15T15:40:31;5.10;99.90
4566;DHT22;2295;51.050;14.608;2022-11-15T15:43:03;5.10;99.90
4566;DHT22;2295;51.050;14.608;2022-11-15T15:45:38;5.00;99.90
4566;DHT22;2295;51.050;14.608;2022-11-15T15:48:12;4.80;99.90
4566;DHT22;2295;51.050;14.608;2022-11-15T15:50:42;4.80;99.90
4566;DHT22;2295;51.050;14.608;2022-11-15T15:53:11;4.80;99.90
4566;DHT22;2295;51.050;14.608;2022-11-15T15:55:41;4.70;99.90
4566;DHT22;2295;51.050;14.608;2022-11-15T15:58:11;4.50;99.90
4566;DHT22;2295;51.050;14.608;2022-11-15T16:00:40;4.50;99.90
4566;DHT22;2295;51.050;14.608;2022-11-15T16:03:09;4.40;99.90
4566;DHT22;2295;51.050;14.608;2022-11-15T16:05:40;4.30;99.90
4566;DHT22;2295;51.050;14.608;2022-11-15T16:08:17;4.30;99.90
4566;DHT22;2295;51.050;14.608;2022-11-15T16:10:46;4.30;99.90
4566;DHT22;2295;51.050;14.608;2022-11-15T16:13:22;4.30;99.90
4566;DHT22;2295;51.050;14.608;2022-11-15T16:15:54;4.30;99.90
4566;DHT22;2295;51.050;14.608;2022-11-15T16:18:24;4.30;99.90
4566;DHT22;2295;51.050;14.608;2022-11-15T16:20:53;4.20;99.90
4566;DHT22;2295;51.050;14.608;2022-11-15T16:23:24;4.10;99.90
4566;DHT22;2295;51.050;14.608;2022-11-15T16:25:54;4.10;99.90
4566;DHT22;2295;51.050;14.608;2022-11-15T16:28:26;4.00;99.90
4566;DHT22;2295;51.050;14.608;2022-11-15T16:31:01;3.90;99.90
4566;DHT22;2295;51.050;14.608;2022-11-15T16:33:29;3.90;99.90
4566;DHT22;2295;51.050;14.608;2022-11-15T16:36:00;3.90;99.90
4566;DHT22;2295;51.050;14.608;2022-11-15T16:38:29;3.90;99.90
4566;DHT22;2295;51.050;14.608;2022-11-15T16:40:59;3.90;99.90
4566;DHT22;2295;51.050;14.608;2022-11-15T16:43:29;3.90;99.90